sensor_id;sensor_type;location;lat;lon;timestamp;pressure;altitude;pressure_sealevel;temperature;humidity
47811;BME280;33575;52.600;7.318;2022-07-01T00:02:24;101154.13;;;16.19;96.06
47811;BME280;33575;52.600;7.318;2022-07-01T00:04:55;101168.36;;;16.23;97.12
47811;BME280;33575;52.600;7.318;2022-07-01T00:07:25;101162.04;;;16.23;96.30
47811;BME280;33575;52.600;7.318;2022-07-01T00:09:56;101167.21;;;16.10;97.08
47811;BME280;33575;52.600;7.318;2022-07-01T00:12:26;101182.09;;;16.09;97.22
47811;BME280;33575;52.600;7.318;2022-07-01T00:14:56;101208.05;;;16.16;96.67
47811;BME280;33575;52.600;7.318;2022-07-01T00:17:27;101209.49;;;16.22;96.84
47811;BME280;33575;52.600;7.318;2022-07-01T00:19:57;101205.10;;;16.26;96.69
47811;BME280;33575;52.600;7.318;2022-07-01T00:22:28;101204.13;;;16.32;97.05
47811;BME280;33575;52.600;7.318;2022-07-01T00:24:58;101202.28;;;16.18;97.29
47811;BME280;33575;52.600;7.318;2022-07-01T00:27:28;101201.48;;;16.17;98.03
47811;BME280;33575;52.600;7.318;2022-07-01T00:29:59;101207.81;;;16.31;96.90
47811;BME280;33575;52.600;7.318;2022-07-01T00:32:29;101202.67;;;16.35;97.01
47811;BME280;33575;52.600;7.318;2022-07-01T00:34:59;101199.31;;;16.35;97.19
47811;BME280;33575;52.600;7.318;2022-07-01T00:37:30;101203.27;;;16.34;97.30
47811;BME280;33575;52.600;7.318;2022-07-01T00:40:00;101204.70;;;16.41;96.82
47811;BME280;33575;52.600;7.318;2022-07-01T00:42:31;101201.19;;;16.25;97.33
47811;BME280;33575;52.600;7.318;2022-07-01T00:45:01;101202.56;;;16.31;97.07
47811;BME280;33575;52.600;7.318;2022-07-01T00:47:31;101211.30;;;16.39;97.35
47811;BME280;33575;52.600;7.318;2022-07-01T00:50:03;101208.46;;;16.43;97.41
47811;BME280;33575;52.600;7.318;2022-07-01T00:52:33;101214.38;;;16.48;97.11
47811;BME280;33575;52.600;7.318;2022-07-01T00:55:04;101221.40;;;16.41;96.98
47811;BME280;33575;52.600;7.318;2022-07-01T00:57:37;101216.33;;;16.38;97.82
47811;BME280;33575;52.600;7.318;2022-07-01T01:00:04;101201.76;;;16.45;97.68
47811;BME280;33575;52.600;7.318;2022-07-01T01:02:34;101194.62;;;16.46;97.60
47811;BME280;33575;52.600;7.318;2022-07-01T01:05:06;101199.09;;;16.42;97.78
47811;BME280;33575;52.600;7.318;2022-07-01T01:07:35;101208.39;;;16.41;97.74
47811;BME280;33575;52.600;7.318;2022-07-01T01:10:06;101212.77;;;16.40;97.74
47811;BME280;33575;52.600;7.318;2022-07-01T01:12:35;101212.60;;;16.50;97.11
47811;BME280;33575;52.600;7.318;2022-07-01T01:15:07;101211.68;;;16.46;97.75
47811;BME280;33575;52.600;7.318;2022-07-01T01:17:36;101208.20;;;16.47;97.71
47811;BME280;33575;52.600;7.318;2022-07-01T01:20:07;101206.34;;;16.54;97.77
47811;BME280;33575;52.600;7.318;2022-07-01T01:22:37;101209.60;;;16.56;97.08
47811;BME280;33575;52.600;7.318;2022-07-01T01:25:07;101209.35;;;16.64;96.92
47811;BME280;33575;52.600;7.318;2022-07-01T01:27:38;101189.91;;;16.66;96.82
47811;BME280;33575;52.600;7.318;2022-07-01T01:30:10;101190.41;;;16.65;96.47
47811;BME280;33575;52.600;7.318;2022-07-01T01:32:39;101198.99;;;16.60;96.74
47811;BME280;33575;52.600;7.318;2022-07-01T01:35:09;101199.92;;;16.57;97.06
47811;BME280;33575;52.600;7.318;2022-07-01T01:37:39;101199.82;;;16.59;96.59
47811;BME280;33575;52.600;7.318;2022-07-01T01:40:11;101202.37;;;16.63;96.76
47811;BME280;33575;52.600;7.318;2022-07-01T01:42:40;101205.39;;;16.65;96.40
47811;BME280;33575;52.600;7.318;2022-07-01T01:45:11;101203.23;;;16.53;97.63
47811;BME280;33575;52.600;7.318;2022-07-01T01:47:41;101206.92;;;16.62;95.98
47811;BME280;33575;52.600;7.318;2022-07-01T01:50:13;101210.86;;;16.63;96.80
47811;BME280;33575;52.600;7.318;2022-07-01T01:52:42;101202.69;;;16.66;96.52
47811;BME280;33575;52.600;7.318;2022-07-01T01:55:12;101200.34;;;16.65;96.39
47811;BME280;33575;52.600;7.318;2022-07-01T01:57:42;101203.81;;;16.58;96.67
47811;BME280;33575;52.600;7.318;2022-07-01T02:00:13;101204.99;;;16.62;96.78
47811;BME280;33575;52.600;7.318;2022-07-01T02:02:43;101205.55;;;16.64;96.15
47811;BME280;33575;52.600;7.318;2022-07-01T02:05:14;101208.02;;;16.65;95.99
47811;BME280;33575;52.600;7.318;2022-07-01T02:07:43;101221.18;;;16.71;95.70
47811;BME280;33575;52.600;7.318;2022-07-01T02:10:14;101225.32;;;16.53;96.43
47811;BME280;33575;52.600;7.318;2022-07-01T02:12:44;101227.95;;;16.55;96.49
47811;BME280;33575;52.600;7.318;2022-07-01T02:15:15;101225.05;;;16.55;96.91
47811;BME280;33575;52.600;7.318;2022-07-01T02:17:45;101224.24;;;16.53;96.86
47811;BME280;33575;52.600;7.318;2022-07-01T02:20:15;101218.98;;;16.35;98.20
47811;BME280;33575;52.600;7.318;2022-07-01T02:22:45;101219.21;;;16.34;98.57
47811;BME280;33575;52.600;7.318;2022-07-01T02:25:16;101221.54;;;16.35;97.90
47811;BME280;33575;52.600;7.318;2022-07-01T02:27:46;101223.77;;;16.34;97.90
47811;BME280;33575;52.600;7.318;2022-07-01T02:30:17;101218.99;;;16.31;98.34
47811;BME280;33575;52.600;7.318;2022-07-01T02:32:47;101224.33;;;16.25;98.33
47811;BME280;33575;52.600;7.318;2022-07-01T02:35:17;101226.54;;;16.18;98.85
47811;BME280;33575;52.600;7.318;2022-07-01T02:37:47;101222.48;;;16.19;99.02
47811;BME280;33575;52.600;7.318;2022-07-01T02:40:18;101220.07;;;16.11;99.08
47811;BME280;33575;52.600;7.318;2022-07-01T02:42:48;101232.01;;;16.08;99.15
47811;BME280;33575;52.600;7.318;2022-07-01T02:45:18;101237.00;;;15.87;100.00
47811;BME280;33575;52.600;7.318;2022-07-01T02:47:49;101239.56;;;15.98;99.19
47811;BME280;33575;52.600;7.318;2022-07-01T02:50:24;101239.75;;;16.01;98.97
47811;BME280;33575;52.600;7.318;2022-07-01T02:52:50;101244.92;;;16.03;99.30
47811;BME280;33575;52.600;7.318;2022-07-01T02:55:20;101252.66;;;16.05;98.64
47811;BME280;33575;52.600;7.318;2022-07-01T02:57:51;101258.76;;;16.02;98.53
47811;BME280;33575;52.600;7.318;2022-07-01T03:00:21;101261.69;;;16.03;98.72
47811;BME280;33575;52.600;7.318;2022-07-01T03:02:51;101258.53;;;16.04;99.08
47811;BME280;33575;52.600;7.318;2022-07-01T03:05:21;101264.09;;;16.04;98.77
47811;BME280;33575;52.600;7.318;2022-07-01T03:07:51;101269.87;;;16.06;98.81
47811;BME280;33575;52.600;7.318;2022-07-01T03:10:21;101268.52;;;15.95;98.78
47811;BME280;33575;52.600;7.318;2022-07-01T03:12:51;101271.23;;;16.02;98.65
47811;BME280;33575;52.600;7.318;2022-07-01T03:15:21;101278.20;;;16.07;98.20
47811;BME280;33575;52.600;7.318;2022-07-01T03:17:52;101279.66;;;16.10;98.02
47811;BME280;33575;52.600;7.318;2022-07-01T03:20:22;101275.88;;;16.00;97.90
47811;BME280;33575;52.600;7.318;2022-07-01T03:22:52;101280.02;;;16.02;97.57
47811;BME280;33575;52.600;7.318;2022-07-01T03:25:23;101289.44;;;15.97;98.01
47811;BME280;33575;52.600;7.318;2022-07-01T03:27:53;101301.68;;;15.95;98.22
47811;BME280;33575;52.600;7.318;2022-07-01T03:30:23;101307.11;;;16.00;97.97
47811;BME280;33575;52.600;7.318;2022-07-01T03:32:53;101312.14;;;16.02;97.77
47811;BME280;33575;52.600;7.318;2022-07-01T03:35:23;101310.85;;;15.90;98.76
47811;BME280;33575;52.600;7.318;2022-07-01T03:37:55;101306.30;;;15.65;97.95
47811;BME280;33575;52.600;7.318;2022-07-01T03:40:25;101311.42;;;15.63;99.34
47811;BME280;33575;52.600;7.318;2022-07-01T03:42:56;101309.53;;;15.67;98.81
47811;BME280;33575;52.600;7.318;2022-07-01T03:45:26;101311.16;;;15.70;98.47
47811;BME280;33575;52.600;7.318;2022-07-01T03:47:57;101313.49;;;15.66;97.06
47811;BME280;33575;52.600;7.318;2022-07-01T03:50:27;101320.10;;;15.67;96.86
47811;BME280;33575;52.600;7.318;2022-07-01T03:52:57;101324.27;;;15.47;97.71
47811;BME280;33575;52.600;7.318;2022-07-01T03:55:27;101327.13;;;15.41;98.32
47811;BME280;33575;52.600;7.318;2022-07-01T03:57:58;101315.08;;;15.27;98.41
47811;BME280;33575;52.600;7.318;2022-07-01T04:00:28;101315.67;;;15.35;98.13
47811;BME280;33575;52.600;7.318;2022-07-01T04:02:59;101323.28;;;15.39;98.36
47811;BME280;33575;52.600;7.318;2022-07-01T04:05:32;101324.05;;;15.48;97.61
47811;BME280;33575;52.600;7.318;2022-07-01T04:08:00;101327.15;;;15.41;98.22
47811;BME280;33575;52.600;7.318;2022-07-01T04:10:31;101340.08;;;15.46;98.10
47811;BME280;33575;52.600;7.318;2022-07-01T04:13:06;101338.51;;;15.40;98.11
47811;BME280;33575;52.600;7.318;2022-07-01T04:15:31;101348.04;;;15.41;97.90
47811;BME280;33575;52.600;7.318;2022-07-01T04:18:01;101351.82;;;15.44;97.83
47811;BME280;33575;52.600;7.318;2022-07-01T04:20:32;101357.07;;;15.43;98.34
47811;BME280;33575;52.600;7.318;2022-07-01T04:23:02;101362.43;;;15.46;98.28
47811;BME280;33575;52.600;7.318;2022-07-01T04:25:32;101363.34;;;15.54;98.11
47811;BME280;33575;52.600;7.318;2022-07-01T04:28:03;101367.21;;;15.55;98.35
47811;BME280;33575;52.600;7.318;2022-07-01T04:30:33;101367.71;;;15.60;98.82
47811;BME280;33575;52.600;7.318;2022-07-01T04:33:03;101368.31;;;15.70;98.19
47811;BME280;33575;52.600;7.318;2022-07-01T04:35:34;101361.00;;;15.76;98.48
47811;BME280;33575;52.600;7.318;2022-07-01T04:38:04;101358.22;;;15.78;98.05
47811;BME280;33575;52.600;7.318;2022-07-01T04:40:35;101359.24;;;15.78;97.63
47811;BME280;33575;52.600;7.318;2022-07-01T04:43:05;101361.27;;;15.85;97.62
47811;BME280;33575;52.600;7.318;2022-07-01T04:45:36;101359.34;;;15.84;97.58
47811;BME280;33575;52.600;7.318;2022-07-01T04:48:06;101362.53;;;15.80;97.23
47811;BME280;33575;52.600;7.318;2022-07-01T04:50:37;101376.01;;;15.79;97.08
47811;BME280;33575;52.600;7.318;2022-07-01T04:53:07;101378.97;;;15.71;97.57
47811;BME280;33575;52.600;7.318;2022-07-01T04:55:37;101381.88;;;15.44;98.12
47811;BME280;33575;52.600;7.318;2022-07-01T04:58:08;101375.85;;;15.44;98.47
47811;BME280;33575;52.600;7.318;2022-07-01T05:00:38;101378.12;;;15.62;97.77
47811;BME280;33575;52.600;7.318;2022-07-01T05:03:08;101376.31;;;15.61;97.43
47811;BME280;33575;52.600;7.318;2022-07-01T05:05:39;101378.36;;;15.52;98.14
47811;BME280;33575;52.600;7.318;2022-07-01T05:08:09;101381.69;;;15.58;97.37
47811;BME280;33575;52.600;7.318;2022-07-01T05:10:40;101386.68;;;15.57;97.77
47811;BME280;33575;52.600;7.318;2022-07-01T05:13:10;101390.27;;;15.62;97.28
47811;BME280;33575;52.600;7.318;2022-07-01T05:15:41;101397.20;;;15.59;97.36
47811;BME280;33575;52.600;7.318;2022-07-01T05:18:12;101401.15;;;15.54;97.61
47811;BME280;33575;52.600;7.318;2022-07-01T05:20:42;101401.81;;;15.59;97.32
47811;BME280;33575;52.600;7.318;2022-07-01T05:23:12;101405.39;;;15.60;97.45
47811;BME280;33575;52.600;7.318;2022-07-01T05:25:42;101402.38;;;15.66;97.73
47811;BME280;33575;52.600;7.318;2022-07-01T05:28:13;101399.37;;;15.64;97.82
47811;BME280;33575;52.600;7.318;2022-07-01T05:30:43;101399.06;;;15.67;97.93
47811;BME280;33575;52.600;7.318;2022-07-01T05:33:13;101404.61;;;15.71;97.95
47811;BME280;33575;52.600;7.318;2022-07-01T05:35:44;101407.13;;;15.76;97.98
47811;BME280;33575;52.600;7.318;2022-07-01T05:38:14;101411.85;;;15.75;97.18
47811;BME280;33575;52.600;7.318;2022-07-01T05:40:45;101413.27;;;15.66;98.02
47811;BME280;33575;52.600;7.318;2022-07-01T05:43:15;101409.56;;;15.71;97.19
47811;BME280;33575;52.600;7.318;2022-07-01T05:45:46;101400.47;;;15.58;97.94
47811;BME280;33575;52.600;7.318;2022-07-01T05:48:16;101404.27;;;15.41;98.01
47811;BME280;33575;52.600;7.318;2022-07-01T05:50:46;101406.42;;;15.48;97.64
47811;BME280;33575;52.600;7.318;2022-07-01T05:53:17;101409.06;;;15.51;97.75
47811;BME280;33575;52.600;7.318;2022-07-01T05:55:47;101409.59;;;15.55;97.15
47811;BME280;33575;52.600;7.318;2022-07-01T05:58:17;101407.72;;;15.62;97.60
47811;BME280;33575;52.600;7.318;2022-07-01T06:00:47;101403.86;;;15.61;97.34
47811;BME280;33575;52.600;7.318;2022-07-01T06:03:18;101403.20;;;15.68;97.14
47811;BME280;33575;52.600;7.318;2022-07-01T06:05:48;101401.55;;;15.73;96.99
47811;BME280;33575;52.600;7.318;2022-07-01T06:08:19;101397.21;;;15.70;97.27
47811;BME280;33575;52.600;7.318;2022-07-01T06:10:50;101392.81;;;15.74;97.16
47811;BME280;33575;52.600;7.318;2022-07-01T06:13:20;101397.51;;;15.66;97.67
47811;BME280;33575;52.600;7.318;2022-07-01T06:15:51;101392.85;;;15.65;96.55
47811;BME280;33575;52.600;7.318;2022-07-01T06:18:22;101396.67;;;15.80;96.48
47811;BME280;33575;52.600;7.318;2022-07-01T06:20:52;101401.31;;;15.85;97.79
47811;BME280;33575;52.600;7.318;2022-07-01T06:23:23;101406.40;;;15.92;96.64
47811;BME280;33575;52.600;7.318;2022-07-01T06:25:53;101408.29;;;15.99;96.17
47811;BME280;33575;52.600;7.318;2022-07-01T06:28:24;101408.48;;;16.03;96.49
47811;BME280;33575;52.600;7.318;2022-07-01T06:30:55;101403.74;;;16.00;96.79
47811;BME280;33575;52.600;7.318;2022-07-01T06:33:25;101397.09;;;16.05;95.75
47811;BME280;33575;52.600;7.318;2022-07-01T06:35:55;101394.70;;;16.03;95.91
47811;BME280;33575;52.600;7.318;2022-07-01T06:38:26;101393.66;;;16.13;95.98
47811;BME280;33575;52.600;7.318;2022-07-01T06:40:56;101389.06;;;16.13;95.94
47811;BME280;33575;52.600;7.318;2022-07-01T06:43:29;101392.22;;;16.14;96.14
47811;BME280;33575;52.600;7.318;2022-07-01T06:45:57;101388.68;;;16.18;96.26
47811;BME280;33575;52.600;7.318;2022-07-01T06:48:28;101392.67;;;16.21;97.01
47811;BME280;33575;52.600;7.318;2022-07-01T06:50:58;101399.65;;;16.09;94.85
47811;BME280;33575;52.600;7.318;2022-07-01T06:53:28;101401.44;;;16.11;94.42
47811;BME280;33575;52.600;7.318;2022-07-01T06:55:59;101406.63;;;16.09;95.69
47811;BME280;33575;52.600;7.318;2022-07-01T06:58:30;101416.68;;;16.12;94.34
47811;BME280;33575;52.600;7.318;2022-07-01T07:01:01;101420.22;;;15.89;94.55
47811;BME280;33575;52.600;7.318;2022-07-01T07:03:31;101421.78;;;15.92;94.78
47811;BME280;33575;52.600;7.318;2022-07-01T07:06:02;101426.78;;;15.92;95.38
47811;BME280;33575;52.600;7.318;2022-07-01T07:08:32;101425.90;;;15.99;95.42
47811;BME280;33575;52.600;7.318;2022-07-01T07:11:03;101429.51;;;16.13;95.11
47811;BME280;33575;52.600;7.318;2022-07-01T07:13:33;101430.06;;;16.16;94.38
47811;BME280;33575;52.600;7.318;2022-07-01T07:16:04;101443.26;;;15.99;94.62
47811;BME280;33575;52.600;7.318;2022-07-01T07:18:35;101448.20;;;16.06;94.79
47811;BME280;33575;52.600;7.318;2022-07-01T07:21:05;101451.39;;;15.81;94.53
47811;BME280;33575;52.600;7.318;2022-07-01T07:23:35;101449.96;;;15.91;94.98
47811;BME280;33575;52.600;7.318;2022-07-01T07:26:06;101443.77;;;15.90;95.47
47811;BME280;33575;52.600;7.318;2022-07-01T07:28:36;101440.88;;;15.96;94.48
47811;BME280;33575;52.600;7.318;2022-07-01T07:31:07;101444.85;;;15.89;94.68
47811;BME280;33575;52.600;7.318;2022-07-01T07:33:37;101450.20;;;15.99;94.22
47811;BME280;33575;52.600;7.318;2022-07-01T07:36:08;101454.71;;;16.10;95.25
47811;BME280;33575;52.600;7.318;2022-07-01T07:38:39;101455.13;;;16.19;94.90
47811;BME280;33575;52.600;7.318;2022-07-01T07:41:09;101466.25;;;16.08;94.80
47811;BME280;33575;52.600;7.318;2022-07-01T07:43:39;101467.94;;;16.16;93.64
47811;BME280;33575;52.600;7.318;2022-07-01T07:46:09;101482.26;;;16.17;93.45
47811;BME280;33575;52.600;7.318;2022-07-01T07:48:40;101487.47;;;16.20;94.19
47811;BME280;33575;52.600;7.318;2022-07-01T07:51:11;101491.17;;;16.09;93.53
47811;BME280;33575;52.600;7.318;2022-07-01T07:53:41;101497.39;;;15.93;92.38
47811;BME280;33575;52.600;7.318;2022-07-01T07:56:12;101495.49;;;15.99;93.30
47811;BME280;33575;52.600;7.318;2022-07-01T07:58:43;101495.08;;;16.02;93.08
47811;BME280;33575;52.600;7.318;2022-07-01T08:01:13;101493.40;;;15.91;93.10
47811;BME280;33575;52.600;7.318;2022-07-01T08:03:44;101491.55;;;16.04;93.16
47811;BME280;33575;52.600;7.318;2022-07-01T08:06:14;101478.80;;;16.16;93.27
47811;BME280;33575;52.600;7.318;2022-07-01T08:08:44;101472.76;;;16.26;92.71
47811;BME280;33575;52.600;7.318;2022-07-01T08:11:14;101470.58;;;16.22;93.07
47811;BME280;33575;52.600;7.318;2022-07-01T08:13:44;101470.37;;;16.23;93.49
47811;BME280;33575;52.600;7.318;2022-07-01T08:16:15;101477.80;;;16.28;93.57
47811;BME280;33575;52.600;7.318;2022-07-01T08:18:45;101481.54;;;16.36;93.65
47811;BME280;33575;52.600;7.318;2022-07-01T08:21:16;101491.89;;;16.52;93.49
47811;BME280;33575;52.600;7.318;2022-07-01T08:23:46;101493.14;;;16.50;93.04
47811;BME280;33575;52.600;7.318;2022-07-01T08:26:17;101489.29;;;16.65;92.73
47811;BME280;33575;52.600;7.318;2022-07-01T08:28:47;101495.01;;;16.72;93.23
47811;BME280;33575;52.600;7.318;2022-07-01T08:31:17;101488.28;;;16.79;92.32
47811;BME280;33575;52.600;7.318;2022-07-01T08:33:48;101491.71;;;16.79;92.06
47811;BME280;33575;52.600;7.318;2022-07-01T08:36:19;101484.28;;;16.63;90.24
47811;BME280;33575;52.600;7.318;2022-07-01T08:38:49;101475.30;;;16.73;91.09
47811;BME280;33575;52.600;7.318;2022-07-01T08:41:19;101463.58;;;16.72;91.31
47811;BME280;33575;52.600;7.318;2022-07-01T08:43:49;101464.66;;;16.73;91.97
47811;BME280;33575;52.600;7.318;2022-07-01T08:46:21;101468.94;;;16.77;91.32
47811;BME280;33575;52.600;7.318;2022-07-01T08:48:50;101476.03;;;16.52;89.81
47811;BME280;33575;52.600;7.318;2022-07-01T08:51:20;101477.17;;;16.56;92.13
47811;BME280;33575;52.600;7.318;2022-07-01T08:53:51;101485.19;;;16.78;90.91
47811;BME280;33575;52.600;7.318;2022-07-01T08:56:21;101493.24;;;16.80;89.64
47811;BME280;33575;52.600;7.318;2022-07-01T08:58:51;101499.05;;;16.85;89.69
47811;BME280;33575;52.600;7.318;2022-07-01T09:01:23;101503.02;;;17.00;90.61
47811;BME280;33575;52.600;7.318;2022-07-01T09:03:54;101518.08;;;17.00;90.18
47811;BME280;33575;52.600;7.318;2022-07-01T09:06:23;101520.57;;;17.15;90.75
47811;BME280;33575;52.600;7.318;2022-07-01T09:08:53;101528.03;;;17.18;88.65
47811;BME280;33575;52.600;7.318;2022-07-01T09:11:25;101531.22;;;17.30;88.87
47811;BME280;33575;52.600;7.318;2022-07-01T09:16:24;101539.43;;;17.33;88.43
47811;BME280;33575;52.600;7.318;2022-07-01T09:19:00;101542.86;;;17.35;87.11
47811;BME280;33575;52.600;7.318;2022-07-01T09:21:28;101547.57;;;17.28;87.76
47811;BME280;33575;52.600;7.318;2022-07-01T09:23:55;101543.41;;;17.40;88.01
47811;BME280;33575;52.600;7.318;2022-07-01T09:26:26;101541.26;;;17.30;85.16
47811;BME280;33575;52.600;7.318;2022-07-01T09:28:57;101544.31;;;17.39;86.85
47811;BME280;33575;52.600;7.318;2022-07-01T09:31:33;101549.73;;;17.35;85.59
47811;BME280;33575;52.600;7.318;2022-07-01T09:34:03;101551.51;;;17.54;86.85
47811;BME280;33575;52.600;7.318;2022-07-01T09:36:27;101548.02;;;17.53;86.50
47811;BME280;33575;52.600;7.318;2022-07-01T09:39:04;101551.26;;;17.54;84.95
47811;BME280;33575;52.600;7.318;2022-07-01T09:41:27;101548.75;;;17.66;87.09
47811;BME280;33575;52.600;7.318;2022-07-01T09:44:04;101551.15;;;17.71;85.20
47811;BME280;33575;52.600;7.318;2022-07-01T09:46:27;101547.54;;;17.70;83.37
47811;BME280;33575;52.600;7.318;2022-07-01T09:48:57;101547.67;;;17.74;84.82
47811;BME280;33575;52.600;7.318;2022-07-01T09:51:28;101557.40;;;17.81;85.66
47811;BME280;33575;52.600;7.318;2022-07-01T09:53:58;101558.27;;;17.80;83.86
47811;BME280;33575;52.600;7.318;2022-07-01T09:56:28;101555.22;;;17.97;83.07
47811;BME280;33575;52.600;7.318;2022-07-01T09:58:58;101555.48;;;17.98;82.15
47811;BME280;33575;52.600;7.318;2022-07-01T10:01:29;101558.38;;;17.95;84.56
47811;BME280;33575;52.600;7.318;2022-07-01T10:04:00;101559.08;;;17.91;80.22
47811;BME280;33575;52.600;7.318;2022-07-01T10:06:42;101558.11;;;17.88;81.08
47811;BME280;33575;52.600;7.318;2022-07-01T10:09:11;101556.37;;;17.99;83.01
47811;BME280;33575;52.600;7.318;2022-07-01T10:14:03;101552.23;;;17.86;81.83
47811;BME280;33575;52.600;7.318;2022-07-01T10:16:34;101551.17;;;17.90;83.35
47811;BME280;33575;52.600;7.318;2022-07-01T10:21:33;101559.32;;;17.95;82.45
47811;BME280;33575;52.600;7.318;2022-07-01T10:24:12;101565.51;;;17.94;81.22
47811;BME280;33575;52.600;7.318;2022-07-01T10:26:34;101569.95;;;18.08;81.05
47811;BME280;33575;52.600;7.318;2022-07-01T10:29:04;101568.60;;;18.03;80.25
47811;BME280;33575;52.600;7.318;2022-07-01T10:31:40;101561.01;;;18.11;81.52
47811;BME280;33575;52.600;7.318;2022-07-01T10:34:06;101572.11;;;18.11;81.28
47811;BME280;33575;52.600;7.318;2022-07-01T10:36:36;101570.29;;;17.87;79.73
47811;BME280;33575;52.600;7.318;2022-07-01T10:39:11;101565.43;;;17.87;80.60
47811;BME280;33575;52.600;7.318;2022-07-01T10:41:37;101565.47;;;17.85;80.74
47811;BME280;33575;52.600;7.318;2022-07-01T10:44:07;101561.22;;;17.82;79.29
47811;BME280;33575;52.600;7.318;2022-07-01T10:46:41;101560.14;;;17.91;80.57
47811;BME280;33575;52.600;7.318;2022-07-01T10:49:07;101564.59;;;17.98;80.96
47811;BME280;33575;52.600;7.318;2022-07-01T10:51:43;101559.45;;;17.94;80.16
47811;BME280;33575;52.600;7.318;2022-07-01T10:54:08;101562.26;;;18.07;81.40
47811;BME280;33575;52.600;7.318;2022-07-01T10:56:40;101563.86;;;18.15;81.46
47811;BME280;33575;52.600;7.318;2022-07-01T10:59:17;101558.00;;;18.11;78.15
47811;BME280;33575;52.600;7.318;2022-07-01T11:01:39;101546.82;;;18.22;78.07
47811;BME280;33575;52.600;7.318;2022-07-01T11:04:09;101544.43;;;18.27;80.16
47811;BME280;33575;52.600;7.318;2022-07-01T11:06:39;101544.90;;;18.22;77.54
47811;BME280;33575;52.600;7.318;2022-07-01T11:09:12;101536.73;;;18.28;78.03
47811;BME280;33575;52.600;7.318;2022-07-01T11:11:41;101538.27;;;18.42;77.92
47811;BME280;33575;52.600;7.318;2022-07-01T11:14:11;101541.61;;;18.63;79.04
47811;BME280;33575;52.600;7.318;2022-07-01T11:16:42;101542.95;;;18.68;77.59
47811;BME280;33575;52.600;7.318;2022-07-01T11:19:13;101547.82;;;18.74;78.38
47811;BME280;33575;52.600;7.318;2022-07-01T11:21:48;101554.82;;;18.77;78.58
47811;BME280;33575;52.600;7.318;2022-07-01T11:24:14;101550.70;;;18.95;76.05
47811;BME280;33575;52.600;7.318;2022-07-01T11:26:44;101558.17;;;19.16;78.19
47811;BME280;33575;52.600;7.318;2022-07-01T11:29:24;101554.12;;;19.12;77.06
47811;BME280;33575;52.600;7.318;2022-07-01T11:31:46;101561.02;;;19.18;76.77
47811;BME280;33575;52.600;7.318;2022-07-01T11:34:16;101558.34;;;19.38;77.23
47811;BME280;33575;52.600;7.318;2022-07-01T11:36:47;101559.08;;;19.46;75.20
47811;BME280;33575;52.600;7.318;2022-07-01T11:39:17;101549.99;;;19.51;75.52
47811;BME280;33575;52.600;7.318;2022-07-01T11:41:46;101544.05;;;19.56;72.56
47811;BME280;33575;52.600;7.318;2022-07-01T11:46:49;101541.32;;;19.76;72.97
47811;BME280;33575;52.600;7.318;2022-07-01T11:49:17;101544.70;;;19.91;75.96
47811;BME280;33575;52.600;7.318;2022-07-01T11:51:54;101540.85;;;19.91;71.55
47811;BME280;33575;52.600;7.318;2022-07-01T11:54:23;101543.79;;;19.80;73.03
47811;BME280;33575;52.600;7.318;2022-07-01T11:56:48;101537.09;;;19.89;71.53
47811;BME280;33575;52.600;7.318;2022-07-01T11:59:19;101531.06;;;20.04;70.57
47811;BME280;33575;52.600;7.318;2022-07-01T12:01:53;101535.38;;;20.07;72.10
47811;BME280;33575;52.600;7.318;2022-07-01T12:04:19;101544.60;;;19.99;71.87
47811;BME280;33575;52.600;7.318;2022-07-01T12:06:49;101536.90;;;19.82;72.85
47811;BME280;33575;52.600;7.318;2022-07-01T12:09:19;101538.09;;;19.96;72.79
47811;BME280;33575;52.600;7.318;2022-07-01T12:11:51;101537.68;;;19.77;70.43
47811;BME280;33575;52.600;7.318;2022-07-01T12:14:21;101543.64;;;19.70;73.86
47811;BME280;33575;52.600;7.318;2022-07-01T12:16:52;101538.38;;;19.44;70.86
47811;BME280;33575;52.600;7.318;2022-07-01T12:19:27;101527.70;;;19.51;73.32
47811;BME280;33575;52.600;7.318;2022-07-01T12:21:53;101520.26;;;19.66;74.16
47811;BME280;33575;52.600;7.318;2022-07-01T12:24:21;101522.10;;;19.77;72.93
47811;BME280;33575;52.600;7.318;2022-07-01T12:26:58;101526.91;;;19.49;70.80
47811;BME280;33575;52.600;7.318;2022-07-01T12:29:23;101523.11;;;19.51;74.18
47811;BME280;33575;52.600;7.318;2022-07-01T12:31:58;101517.34;;;19.45;74.82
47811;BME280;33575;52.600;7.318;2022-07-01T12:34:23;101518.73;;;19.58;73.33
47811;BME280;33575;52.600;7.318;2022-07-01T12:36:55;101519.39;;;19.67;72.61
47811;BME280;33575;52.600;7.318;2022-07-01T12:39:24;101523.29;;;19.87;72.66
47811;BME280;33575;52.600;7.318;2022-07-01T12:41:57;101523.06;;;19.95;70.78
47811;BME280;33575;52.600;7.318;2022-07-01T12:44:26;101520.22;;;19.87;67.91
47811;BME280;33575;52.600;7.318;2022-07-01T12:46:56;101519.16;;;19.97;70.48
47811;BME280;33575;52.600;7.318;2022-07-01T12:49:26;101519.86;;;20.05;71.15
47811;BME280;33575;52.600;7.318;2022-07-01T12:51:56;101522.62;;;19.99;70.21
47811;BME280;33575;52.600;7.318;2022-07-01T12:54:29;101525.82;;;20.05;69.65
47811;BME280;33575;52.600;7.318;2022-07-01T12:56:57;101535.22;;;20.02;67.93
47811;BME280;33575;52.600;7.318;2022-07-01T12:59:27;101536.11;;;20.05;68.52
47811;BME280;33575;52.600;7.318;2022-07-01T13:01:58;101532.06;;;20.06;69.31
47811;BME280;33575;52.600;7.318;2022-07-01T13:04:29;101533.13;;;20.18;67.92
47811;BME280;33575;52.600;7.318;2022-07-01T13:06:59;101535.36;;;20.28;68.07
47811;BME280;33575;52.600;7.318;2022-07-01T13:09:29;101538.89;;;20.26;67.48
47811;BME280;33575;52.600;7.318;2022-07-01T13:12:00;101538.39;;;20.26;68.23
47811;BME280;33575;52.600;7.318;2022-07-01T13:14:30;101536.05;;;20.32;65.86
47811;BME280;33575;52.600;7.318;2022-07-01T13:17:00;101540.86;;;20.53;67.03